createdAt,value
2018-08-25T00:00:59.343Z,15.02
2018-08-25T00:03:32.817Z,14.99
2018-08-25T00:06:08.379Z,14.96
2018-08-25T00:08:41.104Z,14.92
2018-08-25T00:11:14.224Z,14.87
2018-08-25T00:13:47.147Z,14.84
2018-08-25T00:16:19.681Z,14.84
2018-08-25T00:18:53.961Z,14.84
2018-08-25T00:21:26.887Z,14.83
2018-08-25T00:23:59.500Z,14.80
2018-08-25T00:26:32.025Z,14.73
2018-08-25T00:29:04.806Z,14.65
2018-08-25T00:31:37.843Z,14.62
2018-08-25T00:34:11.269Z,14.64
2018-08-25T00:36:44.940Z,14.66
2018-08-25T00:39:18.214Z,14.68
2018-08-25T00:41:51.692Z,14.76
2018-08-25T00:44:25.453Z,14.82
2018-08-25T00:46:57.933Z,14.85
2018-08-25T00:49:30.407Z,14.89
2018-08-25T00:52:03.393Z,14.90
2018-08-25T00:54:36.681Z,14.89
2018-08-25T00:57:09.737Z,14.86
2018-08-25T00:59:43.655Z,14.83
2018-08-25T01:02:16.340Z,14.82
2018-08-25T01:04:50.900Z,14.80
2018-08-25T01:07:23.920Z,14.80
2018-08-25T01:09:56.545Z,14.81
2018-08-25T01:12:29.037Z,14.82
2018-08-25T01:15:03.389Z,14.83
2018-08-25T01:17:36.194Z,14.87
2018-08-25T01:20:08.789Z,14.90
2018-08-25T01:22:42.969Z,14.89
2018-08-25T01:25:16.530Z,14.85
2018-08-25T01:27:49.081Z,14.87
2018-08-25T01:30:23.349Z,14.91
2018-08-25T01:32:56.607Z,14.93
2018-08-25T01:35:30.976Z,14.92
2018-08-25T01:38:06.424Z,14.93
2018-08-25T01:40:39.461Z,14.95
2018-08-25T01:43:12.411Z,14.99
2018-08-25T01:45:45.826Z,14.99
2018-08-25T01:48:18.387Z,14.99
2018-08-25T01:50:51.534Z,14.97
2018-08-25T01:53:24.420Z,14.98
2018-08-25T01:55:56.922Z,14.98
2018-08-25T01:58:29.840Z,14.99
2018-08-25T02:01:02.960Z,14.99
2018-08-25T02:03:35.645Z,15.00
2018-08-25T02:06:08.532Z,15.00
2018-08-25T02:08:42.253Z,15.00
2018-08-25T02:11:15.812Z,15.00
2018-08-25T02:13:48.273Z,15.00
2018-08-25T02:16:21.712Z,14.98
2018-08-25T02:18:54.939Z,15.03
2018-08-25T02:21:27.417Z,15.07
2018-08-25T02:24:01.273Z,15.08
2018-08-25T02:26:33.765Z,15.11
2018-08-25T02:29:06.157Z,15.09
2018-08-25T02:31:39.788Z,15.11
2018-08-25T02:34:12.366Z,15.14
2018-08-25T02:36:44.714Z,15.15
2018-08-25T02:39:17.531Z,15.18
2018-08-25T02:41:50.101Z,15.15
2018-08-25T02:44:22.948Z,15.12
2018-08-25T02:46:55.888Z,15.12
2018-08-25T02:49:28.441Z,15.10
2018-08-25T02:52:01.488Z,15.12
2018-08-25T02:54:34.464Z,15.18
2018-08-25T02:57:06.928Z,15.23
2018-08-25T02:59:39.647Z,15.25
2018-08-25T03:02:13.417Z,15.28
2018-08-25T03:04:46.251Z,15.28
2018-08-25T03:07:18.728Z,15.18
2018-08-25T03:09:51.570Z,14.87
2018-08-25T03:12:24.049Z,14.47
2018-08-25T03:14:58.440Z,14.09
2018-08-25T03:17:31.556Z,13.69
2018-08-25T03:20:04.349Z,13.37
2018-08-25T03:22:36.896Z,13.10
2018-08-25T03:25:12.743Z,12.82
2018-08-25T03:27:45.335Z,12.58
2018-08-25T03:30:18.568Z,12.41
2018-08-25T03:32:54.396Z,12.33
2018-08-25T03:35:26.923Z,12.29
2018-08-25T03:37:59.721Z,12.28
2018-08-25T03:40:33.432Z,12.24
2018-08-25T03:43:05.908Z,12.27
2018-08-25T03:45:38.469Z,12.35
2018-08-25T03:48:11.204Z,12.43
2018-08-25T03:50:45.383Z,12.47
2018-08-25T03:53:18.032Z,12.44
2018-08-25T03:55:51.128Z,12.40
2018-08-25T03:58:24.284Z,12.37
2018-08-25T04:00:56.802Z,12.31
2018-08-25T04:03:29.625Z,12.25
2018-08-25T04:06:02.146Z,12.18
2018-08-25T04:08:34.552Z,12.08
2018-08-25T04:11:07.560Z,11.97
2018-08-25T04:13:40.118Z,11.87
2018-08-25T04:16:12.735Z,11.77
2018-08-25T04:18:46.517Z,11.69
2018-08-25T04:21:19.132Z,11.64
2018-08-25T04:23:52.368Z,11.63
2018-08-25T04:26:25.303Z,11.63
2018-08-25T04:28:58.100Z,11.68
2018-08-25T04:31:30.600Z,11.72
2018-08-25T04:34:03.630Z,11.76
2018-08-25T04:36:36.434Z,11.72
2018-08-25T04:39:10.907Z,11.73
2018-08-25T04:41:44.028Z,11.79
2018-08-25T04:44:17.057Z,11.75
2018-08-25T04:46:49.544Z,11.81
2018-08-25T04:49:23.361Z,11.82
2018-08-25T04:51:56.836Z,11.85
2018-08-25T04:54:29.296Z,11.91
2018-08-25T04:57:08.650Z,11.96
2018-08-25T04:59:42.032Z,12.02
2018-08-25T05:02:14.428Z,12.08
2018-08-25T05:04:47.246Z,12.11
2018-08-25T05:07:20.042Z,12.16
2018-08-25T05:09:52.865Z,12.19
2018-08-25T05:12:25.805Z,12.20
2018-08-25T05:14:59.904Z,12.21
2018-08-25T05:17:33.935Z,12.22
2018-08-25T05:20:07.168Z,12.18
2018-08-25T05:22:39.748Z,12.10
2018-08-25T05:25:12.108Z,12.04
2018-08-25T05:27:45.884Z,12.00
2018-08-25T05:30:18.601Z,11.96
2018-08-25T05:32:51.094Z,11.91
2018-08-25T05:35:23.845Z,11.88
2018-08-25T05:37:56.229Z,11.86
2018-08-25T05:40:28.853Z,11.90
2018-08-25T05:43:01.597Z,11.96
2018-08-25T05:45:33.996Z,12.01
2018-08-25T05:48:06.566Z,12.07
2018-08-25T05:50:40.597Z,12.16
2018-08-25T05:53:14.100Z,12.24
2018-08-25T05:55:46.564Z,12.24
2018-08-25T05:58:24.572Z,12.20
2018-08-25T06:00:57.940Z,12.15
2018-08-25T06:03:31.077Z,12.11
2018-08-25T06:06:05.400Z,12.12
2018-08-25T06:08:38.017Z,12.11
2018-08-25T06:11:10.574Z,12.14
2018-08-25T06:13:45.594Z,12.16
2018-08-25T06:16:19.549Z,12.22
2018-08-25T06:18:52.852Z,12.24
2018-08-25T06:21:28.952Z,12.22
2018-08-25T06:24:03.104Z,12.20
2018-08-25T06:26:35.720Z,12.20
2018-08-25T06:29:09.763Z,12.24
2018-08-25T06:31:42.145Z,12.22
2018-08-25T06:34:14.771Z,12.19
2018-08-25T06:36:47.595Z,12.18
2018-08-25T06:39:28.096Z,12.24
2018-08-25T06:42:00.692Z,12.29
2018-08-25T06:44:34.530Z,12.27
2018-08-25T06:47:08.733Z,12.28
2018-08-25T06:49:43.246Z,12.26
2018-08-25T06:52:16.133Z,12.23
2018-08-25T06:54:48.522Z,12.24
2018-08-25T06:57:21.847Z,12.26
2018-08-25T06:59:55.950Z,12.27
2018-08-25T07:02:28.416Z,12.27
2018-08-25T07:05:00.961Z,12.32
2018-08-25T07:07:34.204Z,12.38
2018-08-25T07:10:06.935Z,12.41
2018-08-25T07:12:39.564Z,12.41
2018-08-25T07:15:14.424Z,12.47
2018-08-25T07:17:48.452Z,12.46
2018-08-25T07:20:20.924Z,12.52
2018-08-25T07:22:56.795Z,12.60
2018-08-25T07:25:29.428Z,12.75
2018-08-25T07:28:02.861Z,12.89
2018-08-25T07:30:35.713Z,12.97
2018-08-25T07:33:09.110Z,12.89
2018-08-25T07:35:44.968Z,12.77
2018-08-25T07:38:18.920Z,12.63
2018-08-25T07:40:52.430Z,12.54
2018-08-25T07:43:25.774Z,12.48
2018-08-25T07:46:04.357Z,12.52
2018-08-25T07:48:38.747Z,12.50
2018-08-25T07:51:12.454Z,12.56
2018-08-25T07:53:48.296Z,12.64
2018-08-25T07:56:22.029Z,12.80
2018-08-25T07:58:54.553Z,12.90
2018-08-25T08:01:28.958Z,12.95
2018-08-25T08:04:01.506Z,13.10
2018-08-25T08:06:34.047Z,13.41
2018-08-25T08:09:09.969Z,13.40
2018-08-25T08:11:43.513Z,13.58
2018-08-25T08:14:18.464Z,13.83
2018-08-25T08:16:52.163Z,14.02
2018-08-25T08:19:26.654Z,13.94
2018-08-25T08:21:59.908Z,13.95
2018-08-25T08:24:33.597Z,13.93
2018-08-25T08:27:07.572Z,13.93
2018-08-25T08:29:41.380Z,13.99
2018-08-25T08:32:17.606Z,14.04
2018-08-25T08:34:52.330Z,13.97
2018-08-25T08:37:27.000Z,13.86
2018-08-25T08:40:00.763Z,13.75
2018-08-25T08:42:34.573Z,13.94
2018-08-25T08:45:09.033Z,14.39
2018-08-25T08:47:43.988Z,14.54
2018-08-25T08:50:20.488Z,14.50
2018-08-25T08:52:54.857Z,14.56
2018-08-25T08:55:28.979Z,14.66
2018-08-25T08:58:03.328Z,14.71
2018-08-25T09:00:38.831Z,14.64
2018-08-25T09:03:12.486Z,14.59
2018-08-25T09:05:46.334Z,14.56
2018-08-25T09:08:23.531Z,14.56
2018-08-25T09:10:58.697Z,14.59
2018-08-25T09:13:32.828Z,14.70
2018-08-25T09:16:06.311Z,15.03
2018-08-25T09:18:40.426Z,15.31
2018-08-25T09:21:14.488Z,15.38
2018-08-25T09:23:49.552Z,15.38
2018-08-25T09:26:23.157Z,15.29
2018-08-25T09:29:00.514Z,15.19
2018-08-25T09:31:35.979Z,15.21
2018-08-25T09:34:10.036Z,15.51
2018-08-25T09:36:45.248Z,15.83
2018-08-25T09:39:18.736Z,15.99
2018-08-25T09:41:52.576Z,16.14
2018-08-25T09:44:27.000Z,16.33
2018-08-25T09:46:59.854Z,16.27
2018-08-25T09:49:32.585Z,16.32
2018-08-25T09:52:06.755Z,16.48
2018-08-25T09:54:42.591Z,16.46
2018-08-25T09:57:20.364Z,16.33
2018-08-25T09:59:54.298Z,16.29
2018-08-25T10:02:27.557Z,16.44
2018-08-25T10:05:00.578Z,16.68
2018-08-25T10:07:34.864Z,16.70
2018-08-25T10:10:08.572Z,16.70
2018-08-25T10:12:41.082Z,16.70
2018-08-25T10:15:16.848Z,16.99
2018-08-25T10:17:50.248Z,17.58
2018-08-25T10:20:23.898Z,18.01
2018-08-25T10:22:56.746Z,17.64
2018-08-25T10:25:31.169Z,17.71
2018-08-25T10:28:05.337Z,18.26
2018-08-25T10:30:38.247Z,18.44
2018-08-25T10:33:10.690Z,18.50
2018-08-25T10:35:44.288Z,18.38
2018-08-25T10:38:18.263Z,18.28
2018-08-25T10:40:55.284Z,18.38
2018-08-25T10:43:28.489Z,18.44
2018-08-25T10:46:01.320Z,18.25
2018-08-25T10:48:34.902Z,18.32
2018-08-25T10:51:10.044Z,18.48
2018-08-25T10:53:43.344Z,18.69
2018-08-25T10:56:16.704Z,18.74
2018-08-25T10:58:50.129Z,18.78
2018-08-25T11:01:23.686Z,18.36
2018-08-25T11:03:57.103Z,17.96
2018-08-25T11:06:34.316Z,17.66
2018-08-25T11:09:13.353Z,17.46
2018-08-25T11:11:46.113Z,17.75
2018-08-25T11:14:20.769Z,18.12
2018-08-25T11:16:53.581Z,17.97
2018-08-25T11:19:28.312Z,17.77
2018-08-25T11:22:03.383Z,18.20
2018-08-25T11:24:36.762Z,18.28
2018-08-25T11:27:10.313Z,18.30
2018-08-25T11:29:44.191Z,18.17
2018-08-25T11:32:16.787Z,18.14
2018-08-25T11:34:53.356Z,18.58
2018-08-25T11:37:33.320Z,18.83
2018-08-25T11:40:06.098Z,18.52
2018-08-25T11:42:43.966Z,18.09
2018-08-25T11:45:16.678Z,17.73
2018-08-25T11:47:49.224Z,17.82
2018-08-25T11:50:21.754Z,18.37
2018-08-25T11:52:54.331Z,18.65
2018-08-25T11:55:27.869Z,18.33
2018-08-25T11:58:01.076Z,18.06
2018-08-25T12:00:37.322Z,17.84
2018-08-25T12:03:10.185Z,17.81
2018-08-25T12:05:44.937Z,17.80
2018-08-25T12:08:19.457Z,17.42
2018-08-25T12:10:53.035Z,17.12
2018-08-25T12:13:26.857Z,16.87
2018-08-25T12:16:01.026Z,16.88
2018-08-25T12:18:34.673Z,17.19
2018-08-25T12:21:07.751Z,17.78
2018-08-25T12:23:42.349Z,18.16
2018-08-25T12:26:17.777Z,18.36
2018-08-25T12:28:51.037Z,18.31
2018-08-25T12:31:26.750Z,18.39
2018-08-25T12:34:03.168Z,18.56
2018-08-25T12:36:38.113Z,18.60
2018-08-25T12:39:12.788Z,18.40
2018-08-25T12:41:46.318Z,17.93
2018-08-25T12:44:20.018Z,17.66
2018-08-25T12:46:53.916Z,17.32
2018-08-25T12:49:27.275Z,17.14
2018-08-25T12:52:02.604Z,17.01
2018-08-25T12:54:39.021Z,16.97
2018-08-25T12:57:13.554Z,16.86
2018-08-25T12:59:47.102Z,16.93
2018-08-25T13:02:21.829Z,17.23
2018-08-25T13:04:57.269Z,17.29
2018-08-25T13:07:30.543Z,17.15
2018-08-25T13:10:09.984Z,17.05
2018-08-25T13:12:42.436Z,17.06
2018-08-25T13:15:18.237Z,17.05
2018-08-25T13:17:51.146Z,17.10
2018-08-25T13:20:25.876Z,17.35
2018-08-25T13:22:59.687Z,17.64
2018-08-25T13:25:34.056Z,17.78
2018-08-25T13:28:18.265Z,17.92
2018-08-25T13:30:53.632Z,18.11
2018-08-25T13:33:28.190Z,18.49
2018-08-25T13:36:03.018Z,18.92
2018-08-25T13:38:38.713Z,19.00
2018-08-25T13:41:13.643Z,18.90
2018-08-25T13:43:47.806Z,18.65
2018-08-25T13:46:21.737Z,18.17
2018-08-25T13:48:57.122Z,17.93
2018-08-25T13:51:30.064Z,17.77
2018-08-25T13:54:04.149Z,17.97
2018-08-25T13:56:54.611Z,18.42
2018-08-25T13:59:34.832Z,19.01
2018-08-25T14:02:16.289Z,19.33
2018-08-25T14:04:50.958Z,19.17
2018-08-25T14:07:25.534Z,18.91
2018-08-25T14:10:06.383Z,18.70
2018-08-25T14:12:41.219Z,18.42
2018-08-25T14:15:15.273Z,18.47
2018-08-25T14:17:49.873Z,18.89
2018-08-25T14:20:23.313Z,19.36
2018-08-25T14:22:59.376Z,19.43
2018-08-25T14:25:33.240Z,18.94
2018-08-25T14:28:08.823Z,18.60
2018-08-25T14:30:42.747Z,18.47
2018-08-25T14:33:19.266Z,18.45
2018-08-25T14:35:55.677Z,18.40
2018-08-25T14:38:31.424Z,18.58
2018-08-25T14:41:04.434Z,18.83
2018-08-25T14:43:36.964Z,18.78
2018-08-25T14:46:11.470Z,18.66
2018-08-25T14:48:46.130Z,18.67
2018-08-25T14:51:18.645Z,19.03
2018-08-25T14:53:51.469Z,19.18
2018-08-25T14:56:27.397Z,19.27
2018-08-25T14:59:08.524Z,19.53
2018-08-25T15:01:42.790Z,19.45
2018-08-25T15:04:17.358Z,19.25
2018-08-25T15:06:51.433Z,18.88
2018-08-25T15:09:28.376Z,18.66
2018-08-25T15:12:02.987Z,18.32
2018-08-25T15:14:38.686Z,17.85
2018-08-25T15:17:13.369Z,17.51
2018-08-25T15:19:49.645Z,17.30
2018-08-25T15:22:25.971Z,17.07
2018-08-25T15:25:01.491Z,16.80
2018-08-25T15:27:36.900Z,16.65
2018-08-25T15:30:16.301Z,16.53
2018-08-25T15:32:49.589Z,16.56
2018-08-25T15:35:22.041Z,16.98
2018-08-25T15:37:58.216Z,17.31
2018-08-25T15:40:33.586Z,17.77
2018-08-25T15:43:07.761Z,18.11
2018-08-25T15:45:42.313Z,18.26
2018-08-25T15:48:34.493Z,18.40
2018-08-25T15:51:18.713Z,18.54
2018-08-25T15:53:53.049Z,18.67
2018-08-25T15:56:27.272Z,18.75
2018-08-25T16:01:25.342Z,19.26
2018-08-25T16:04:00.207Z,19.07
2018-08-25T16:06:33.762Z,19.17
2018-08-25T16:09:09.816Z,19.18
2018-08-25T16:11:45.520Z,19.19
2018-08-25T16:14:39.828Z,18.94
2018-08-25T16:17:21.565Z,18.88
2018-08-25T16:19:55.203Z,19.17
2018-08-25T16:22:30.893Z,19.00
2018-08-25T16:25:06.544Z,18.68
2018-08-25T16:27:39.829Z,18.78
2018-08-25T16:30:15.141Z,19.01
2018-08-25T16:32:48.609Z,19.19
2018-08-25T16:35:21.620Z,18.90
2018-08-25T16:37:55.704Z,18.40
2018-08-25T16:40:36.417Z,18.00
2018-08-25T16:43:12.719Z,17.93
2018-08-25T16:45:55.289Z,18.12
2018-08-25T16:48:28.558Z,18.49
2018-08-25T16:51:02.319Z,18.93
2018-08-25T16:53:36.240Z,19.18
2018-08-25T16:56:09.717Z,19.30
2018-08-25T16:58:44.786Z,19.36
2018-08-25T17:01:19.800Z,19.32
2018-08-25T17:03:55.482Z,19.20
2018-08-25T17:06:29.683Z,19.00
2018-08-25T17:09:07.783Z,18.68
2018-08-25T17:11:41.356Z,18.39
2018-08-25T17:14:15.208Z,17.97
2018-08-25T17:16:51.232Z,17.79
2018-08-25T17:19:25.641Z,17.71
2018-08-25T17:21:58.281Z,17.46
2018-08-25T17:24:35.190Z,17.12
2018-08-25T17:27:09.045Z,16.85
2018-08-25T17:29:45.365Z,16.67
2018-08-25T17:32:18.565Z,16.54
2018-08-25T17:34:51.813Z,16.47
2018-08-25T17:37:25.579Z,16.40
2018-08-25T17:40:05.632Z,16.30
2018-08-25T17:42:47.341Z,16.20
2018-08-25T17:45:28.401Z,16.04
2018-08-25T17:48:05.759Z,15.89
2018-08-25T17:50:57.777Z,15.77
2018-08-25T17:53:45.138Z,15.64
2018-08-25T17:56:24.595Z,15.55
2018-08-25T17:59:04.167Z,15.53
2018-08-25T18:01:38.778Z,15.43
2018-08-25T18:04:14.850Z,15.03
2018-08-25T18:06:52.045Z,14.50
2018-08-25T18:09:33.675Z,14.01
2018-08-25T18:12:11.067Z,13.67
2018-08-25T18:14:48.154Z,13.43
2018-08-25T18:17:34.766Z,13.24
2018-08-25T18:20:11.274Z,13.12
2018-08-25T18:22:48.440Z,13.01
2018-08-25T18:25:21.257Z,12.91
2018-08-25T18:28:01.887Z,12.85
2018-08-25T18:30:35.757Z,12.83
2018-08-25T18:33:11.397Z,12.79
2018-08-25T18:35:45.467Z,12.75
2018-08-25T18:38:18.216Z,12.75
2018-08-25T18:40:51.422Z,12.77
2018-08-25T18:43:23.990Z,12.74
2018-08-25T18:46:00.006Z,12.72
2018-08-25T18:48:33.619Z,12.69
2018-08-25T18:51:07.105Z,12.67
2018-08-25T18:53:40.767Z,12.66
2018-08-25T18:56:14.685Z,12.57
2018-08-25T18:58:55.317Z,12.48
2018-08-25T19:01:29.267Z,12.37
2018-08-25T19:04:02.069Z,12.26
2018-08-25T19:06:36.947Z,12.16
2018-08-25T19:09:13.301Z,12.09
2018-08-25T19:11:46.669Z,12.01
2018-08-25T19:14:23.966Z,11.95
2018-08-25T19:17:00.713Z,11.89
2018-08-25T19:19:34.281Z,11.82
2018-08-25T19:22:17.963Z,11.70
2018-08-25T19:24:52.217Z,11.62
2018-08-25T19:27:25.119Z,11.53
2018-08-25T19:29:59.511Z,11.38
2018-08-25T19:32:34.653Z,11.20
2018-08-25T19:35:13.031Z,11.03
2018-08-25T19:37:49.121Z,10.88
2018-08-25T19:40:35.229Z,10.81
2018-08-25T19:43:07.774Z,10.74
2018-08-25T19:45:40.332Z,10.68
2018-08-25T19:48:13.840Z,10.58
2018-08-25T19:50:50.057Z,10.47
2018-08-25T19:53:25.329Z,10.45
2018-08-25T19:56:00.715Z,10.43
2018-08-25T19:58:41.922Z,10.40
2018-08-25T20:01:14.938Z,10.29
2018-08-25T20:03:50.710Z,10.17
2018-08-25T20:06:25.122Z,10.07
2018-08-25T20:08:58.964Z,10.03
2018-08-25T20:11:33.830Z,10.06
2018-08-25T20:14:06.824Z,10.03
2018-08-25T20:16:40.631Z,9.95
2018-08-25T20:19:15.312Z,9.95
2018-08-25T20:21:50.429Z,10.05
2018-08-25T20:24:23.530Z,9.99
2018-08-25T20:27:00.108Z,9.99
2018-08-25T20:29:34.523Z,9.94
2018-08-25T20:32:28.179Z,9.88
2018-08-25T20:35:03.647Z,9.86
2018-08-25T20:37:44.246Z,9.81
2018-08-25T20:40:17.609Z,9.78
2018-08-25T20:42:52.003Z,9.75
2018-08-25T20:45:25.943Z,9.71
2018-08-25T20:47:59.327Z,9.63
2018-08-25T20:50:43.311Z,9.67
2018-08-25T20:53:18.833Z,9.62
2018-08-25T20:55:58.646Z,9.54
2018-08-25T20:58:34.283Z,9.46
2018-08-25T21:01:07.586Z,9.38
2018-08-25T21:03:42.965Z,9.33
2018-08-25T21:06:20.469Z,9.32
2018-08-25T21:08:55.271Z,9.34
2018-08-25T21:11:38.363Z,9.28
2018-08-25T21:14:15.516Z,9.23
2018-08-25T21:16:50.837Z,9.11
2018-08-25T21:19:27.585Z,8.97
2018-08-25T21:22:05.881Z,8.93
2018-08-25T21:24:42.487Z,8.99
2018-08-25T21:27:16.230Z,9.02
2018-08-25T21:29:48.796Z,9.01
2018-08-25T21:32:22.208Z,8.98
2018-08-25T21:34:55.233Z,8.95
2018-08-25T21:37:27.810Z,8.90
2018-08-25T21:40:04.700Z,8.84
2018-08-25T21:42:37.872Z,8.75
2018-08-25T21:45:13.425Z,8.89
2018-08-25T21:47:47.540Z,9.04
2018-08-25T21:50:26.177Z,9.19
2018-08-25T21:53:00.933Z,9.34
2018-08-25T21:55:35.728Z,9.37
2018-08-25T21:58:10.888Z,9.27
2018-08-25T22:00:50.869Z,9.09
2018-08-25T22:03:45.357Z,8.95
2018-08-25T22:06:17.838Z,8.98
2018-08-25T22:09:01.136Z,9.02
2018-08-25T22:11:38.624Z,9.04
2018-08-25T22:14:12.185Z,9.00
2018-08-25T22:16:48.019Z,9.04
2018-08-25T22:19:25.604Z,9.21
2018-08-25T22:21:59.636Z,9.19
2018-08-25T22:24:35.842Z,9.14
2018-08-25T22:27:11.544Z,9.06
2018-08-25T22:29:45.920Z,8.94
2018-08-25T22:32:20.601Z,8.93
2018-08-25T22:34:55.398Z,8.80
2018-08-25T22:37:27.999Z,8.70
2018-08-25T22:40:03.320Z,8.64
2018-08-25T22:42:36.597Z,8.58
2018-08-25T22:45:12.349Z,8.61
2018-08-25T22:47:49.325Z,8.61
2018-08-25T22:50:22.669Z,8.50
2018-08-25T22:52:58.587Z,8.48
2018-08-25T22:55:32.907Z,8.56
2018-08-25T22:58:08.450Z,8.62
2018-08-25T23:00:47.029Z,8.56
2018-08-25T23:03:21.589Z,8.41
2018-08-25T23:05:54.221Z,8.31
2018-08-25T23:08:29.171Z,8.20
2018-08-25T23:11:03.348Z,8.11
2018-08-25T23:13:37.351Z,8.04
2018-08-25T23:16:13.224Z,8.06
2018-08-25T23:18:46.631Z,7.99
2018-08-25T23:21:20.146Z,7.95
2018-08-25T23:23:54.708Z,7.97
2018-08-25T23:26:28.259Z,7.95
2018-08-25T23:29:00.947Z,7.86
2018-08-25T23:31:33.697Z,7.78
2018-08-25T23:34:11.000Z,7.73
2018-08-25T23:36:44.201Z,7.66
2018-08-25T23:39:19.036Z,7.65
2018-08-25T23:41:53.288Z,7.55
2018-08-25T23:46:15.313Z,7.53
2018-08-25T23:48:48.210Z,7.39
2018-08-25T23:51:21.693Z,7.39
2018-08-25T23:53:55.150Z,7.47
2018-08-25T23:56:33.135Z,7.52
2018-08-25T23:59:05.960Z,7.55
